Time;durP1;ratioP1;P1;durP2;ratioP2;P2;SDS_P1;SDS_P2;PMS_P1;PMS_P2;Temp;Humidity;BMP_temperature;BMP_pressure;BME280_temperature;BME280_humidity;BME280_pressure;Samples;Min_cycle;Max_cycle;Signal;HPM_P1;HPM_P2
2023/07/09 00:02:48;;;;;;;;;;;;;;;;;;;;;
2023/07/09 00:08:55;;;;;;;;;;;;;;;;;;;;;
2023/07/09 00:15:00;;;;;;;;;;;;;;;;;;;;;
2023/07/09 00:20:47;;;;;;;13.40;10.60;;;;;;;16.44;68.32;99186.08;225863;1280;22527;-73
2023/07/09 00:26:13;;;;;;;13.30;11.10;;;;;;;16.40;68.30;99180.67;226040;1279;22567;-72
2023/07/09 00:31:59;;;;;;;12.30;10.40;;;;;;;16.35;68.77;99185.38;225895;1280;22551;-72
2023/07/09 00:37:25;;;;;;;13.40;10.60;;;;;;;16.32;68.55;99189.17;225954;1280;22543;-72
2023/07/09 00:42:35;;;;;;;12.30;10.80;;;;;;;16.28;68.65;99187.73;225947;1269;22547;-73
2023/07/09 00:48:36;;;;;;;;;;;;;;;;;;;;;
2023/07/09 00:54:20;;;;;;;13.10;11.00;;;;;;;16.09;69.11;99178.03;225943;1280;22541;-73
2023/07/09 01:00:09;;;;;;;13.30;11.70;;;;;;;16.00;69.48;99176.16;225838;1280;22540;-72
2023/07/09 01:05:17;;;;;;;12.70;11.40;;;;;;;15.92;69.74;99173.48;225950;1280;22544;-72
2023/07/09 01:10:30;;;;;;;13.00;11.60;;;;;;;15.84;70.03;99176.61;225928;1278;22526;-72
2023/07/09 01:15:37;;;;;;;14.20;11.70;;;;;;;15.77;70.42;99174.90;225910;1278;22530;-72
2023/07/09 01:20:46;;;;;;;14.70;11.70;;;;;;;15.70;70.58;99173.60;225807;1278;25389;-72
2023/07/09 01:27:13;;;;;;;;;;;;;;;;;;;;;
2023/07/09 01:32:55;;;;;;;;;;;;;;;;;;;;;
2023/07/09 01:38:46;;;;;;;;;;;;;;;;;;;;;
2023/07/09 01:44:13;;;;;;;13.10;11.70;;;;;;;15.32;70.81;99181.30;225944;1278;24453;-72
2023/07/09 01:49:57;;;;;;;12.60;11.10;;;;;;;15.22;70.74;99182.06;225833;1280;22585;-72
2023/07/09 01:55:33;;;;;;;14.40;11.70;;;;;;;15.14;71.01;99190.71;225924;1280;22646;-73
2023/07/09 02:06:46;;;;;;;14.50;11.80;;;;;;;14.99;71.56;99192.28;225921;1280;22564;-73
2023/07/09 02:12:30;;;;;;;13.00;11.60;;;;;;;14.91;71.67;99196.80;225871;1280;23048;-73
2023/07/09 02:17:55;;;;;;;;;;;;;;;;;;;;;
2023/07/09 02:23:55;;;;;;;14.30;11.50;;;;;;;14.78;72.16;99197.73;225975;1280;22545;-71
2023/07/09 02:29:03;;;;;;;15.00;10.90;;;;;;;14.74;72.49;99196.95;225953;1280;22540;-72
2023/07/09 02:41:15;;;;;;;11.90;10.60;;;;;;;14.73;72.93;99194.17;225892;1280;22544;-72
2023/07/09 02:47:07;;;;;;;;;;;;;;;;;;;;;
2023/07/09 02:52:13;;;;;;;14.70;10.50;;;;;;;14.81;72.87;99205.14;225956;1276;24224;-72
2023/07/09 02:57:17;;;;;;;12.20;10.60;;;;;;;14.88;73.35;99207.43;225923;1278;24254;-72
2023/07/09 03:03:35;;;;;;;;;;;;;;;;;;;;;
2023/07/09 03:08:41;;;;;;;13.60;10.70;;;;;;;15.04;73.30;99210.79;225861;1278;22585;-72
2023/07/09 03:14:04;;;;;;;;;;;;;;;;;;;;;
2023/07/09 03:19:51;;;;;;;;;;;;;;;;;;;;;
2023/07/09 03:25:30;;;;;;;13.40;10.20;;;;;;;15.10;73.45;99215.82;225888;1280;22551;-72
2023/07/09 03:30:47;;;;;;;11.50;10.20;;;;;;;15.43;73.34;99214.92;225840;1278;22542;-72
2023/07/09 03:36:37;;;;;;;12.30;10.30;;;;;;;15.90;73.14;99216.10;225825;1278;22570;-72
2023/07/09 03:41:39;;;;;;;11.10;9.70;;;;;;;16.49;72.60;99208.20;225898;1280;22608;-73
2023/07/09 03:46:53;;;;;;;11.80;9.50;;;;;;;16.97;71.82;99213.77;225914;1278;23000;-73
2023/07/09 03:52:23;;;;;;;10.60;9.40;;;;;;;17.42;70.82;99214.73;225769;1280;22537;-73
2023/07/09 04:10:15;;;;;;;10.70;9.50;;;;;;;18.20;68.88;99219.61;225955;1278;22658;-72
2023/07/09 04:15:37;;;;;;;10.50;9.30;;;;;;;18.16;68.64;99219.65;225903;1280;22618;-72
2023/07/09 04:20:42;;;;;;;12.90;10.00;;;;;;;18.12;68.70;99222.70;225896;1275;25365;-72
2023/07/09 04:25:58;;;;;;;13.80;10.40;;;;;;;18.11;68.53;99220.95;225852;1281;22544;-72
2023/07/09 04:31:33;;;;;;;16.30;10.80;;;;;;;18.03;68.50;99218.14;225956;1276;22545;-72
2023/07/09 04:37:30;;;;;;;;;;;;;;;;;;;;;
2023/07/09 04:43:03;;;;;;;10.60;9.40;;;;;;;17.97;69.00;99231.29;225939;1280;22567;-72
2023/07/09 04:48:28;;;;;;;;;;;;;;;;;;;;;
2023/07/09 04:54:14;;;;;;;10.40;9.40;;;;;;;18.19;68.53;99231.67;225939;1280;22591;-72
2023/07/09 05:00:26;;;;;;;12.20;10.10;;;;;;;18.27;68.48;99233.65;225833;1280;22549;-72
2023/07/09 05:06:38;;;;;;;12.80;9.60;;;;;;;18.39;68.40;99232.10;225852;1280;22543;-72
2023/07/09 05:18:39;;;;;;;;;;;;;;;;;;;;;
2023/07/09 05:24:21;;;;;;;10.10;9.00;;;;;;;19.04;68.06;99251.04;225884;1280;22547;-72
2023/07/09 05:30:29;;;;;;;10.40;8.50;;;;;;;19.25;67.85;99251.46;225777;1269;22672;-73
2023/07/09 05:41:51;;;;;;;9.30;8.00;;;;;;;19.63;67.34;99257.15;225897;1281;22545;-72
2023/07/09 05:47:44;;;;;;;10.10;8.10;;;;;;;19.88;66.72;99255.89;225868;1280;22528;-72
2023/07/09 05:53:23;;;;;;;10.30;8.20;;;;;;;20.10;66.58;99258.55;225908;1280;22547;-72
2023/07/09 05:59:40;;;;;;;10.00;8.10;;;;;;;20.31;66.60;99260.16;225811;1280;22541;-73
2023/07/09 06:04:42;;;;;;;8.20;7.40;;;;;;;20.56;66.34;99258.55;225840;1280;22546;-72
2023/07/09 06:10:07;;;;;;;11.40;7.10;;;;;;;20.77;66.00;99260.70;225843;1280;22545;-72
2023/07/09 06:15:39;;;;;;;8.20;7.10;;;;;;;20.95;65.66;99263.86;225767;1281;22540;-73
2023/07/09 06:20:41;;;;;;;9.90;7.00;;;;;;;21.15;65.43;99264.17;225669;1279;373080;-73
2023/07/09 06:26:03;;;;;;;7.20;6.50;;;;;;;21.34;64.74;99270.47;225821;1281;22533;-73
2023/07/09 06:31:15;;;;;;;8.60;6.10;;;;;;;21.48;64.06;99269.07;225863;1281;22562;-72
2023/07/09 06:36:41;;;;;;;7.70;6.60;;;;;;;21.65;63.65;99265.60;225821;1280;25245;-72
2023/07/09 06:41:49;;;;;;;6.30;5.60;;;;;;;21.82;63.10;99267.30;225664;1280;22555;-73
2023/07/09 06:47:17;;;;;;;7.60;5.90;;;;;;;22.03;62.77;99265.65;225845;1280;24248;-73
2023/07/09 06:52:19;;;;;;;7.30;6.00;;;;;;;22.24;62.70;99265.30;225828;1281;22559;-72
2023/07/09 06:57:42;;;;;;;6.70;6.10;;;;;;;22.43;61.85;99260.23;225871;1281;22564;-73
2023/07/09 07:02:44;;;;;;;6.90;6.20;;;;;;;22.59;61.21;99261.60;225865;1274;22553;-73
2023/07/09 07:08:03;;;;;;;6.60;5.80;;;;;;;22.78;61.13;99267.61;225837;1280;23477;-72
2023/07/09 07:13:06;;;;;;;6.30;5.60;;;;;;;23.01;61.01;99267.17;225838;1275;22563;-72
2023/07/09 07:18:22;;;;;;;7.60;5.70;;;;;;;23.23;60.37;99262.40;225833;1280;22585;-72
2023/07/09 07:23:41;;;;;;;6.20;5.60;;;;;;;23.45;59.94;99259.85;225849;1280;22546;-72
2023/07/09 07:28:43;;;;;;;6.20;5.60;;;;;;;23.71;59.25;99258.73;225900;1276;22635;-72
2023/07/09 07:33:54;;;;;;;6.70;6.10;;;;;;;23.94;58.85;99252.21;225859;1264;22555;-73
2023/07/09 07:39:31;;;;;;;6.90;6.20;;;;;;;24.19;58.19;99254.70;225864;1279;22550;-73
2023/07/09 07:44:35;;;;;;;6.70;6.10;;;;;;;24.41;57.78;99253.11;225863;1277;22544;-73
2023/07/09 07:49:41;;;;;;;6.40;5.90;;;;;;;24.54;57.27;99252.33;225837;1277;24251;-73
2023/07/09 07:54:43;;;;;;;6.90;6.30;;;;;;;24.75;57.60;99251.27;225768;1276;22540;-73
2023/07/09 07:59:46;;;;;;;6.70;6.10;;;;;;;24.95;56.71;99253.27;225690;1277;22537;-73
2023/07/09 08:04:54;;;;;;;6.70;6.00;;;;;;;25.17;56.58;99253.75;225805;1279;22551;-72
2023/07/09 08:09:59;;;;;;;6.80;6.20;;;;;;;25.43;56.39;99248.52;225798;1280;22601;-73
2023/07/09 08:15:35;;;;;;;6.70;6.00;;;;;;;25.72;55.89;99247.67;225616;1280;22618;-72
2023/07/09 08:20:45;;;;;;;6.90;6.30;;;;;;;25.96;54.98;99244.40;225678;1280;22547;-73
2023/07/09 08:26:08;;;;;;;6.00;5.50;;;;;;;26.16;54.54;99248.16;225850;1274;22549;-72
2023/07/09 08:31:11;;;;;;;6.30;5.70;;;;;;;26.42;54.55;99237.91;225815;1278;22602;-73
2023/07/09 08:36:13;;;;;;;7.00;6.40;;;;;;;26.66;53.77;99236.71;225824;1279;22538;-73
2023/07/09 08:41:57;;;;;;;6.10;5.50;;;;;;;26.85;53.16;99236.48;225860;1280;22554;-73
2023/07/09 08:47:29;;;;;;;6.70;6.10;;;;;;;27.13;52.87;99235.13;225855;1279;22551;-73
2023/07/09 08:52:47;;;;;;;5.50;5.00;;;;;;;27.38;51.39;99233.58;225790;1280;22526;-73
2023/07/09 08:58:00;;;;;;;5.60;4.70;;;;;;;27.59;49.62;99230.02;225811;1277;25351;-73
2023/07/09 09:03:30;;;;;;;5.10;4.60;;;;;;;27.78;48.85;99230.63;225829;1274;22554;-73
2023/07/09 09:09:03;;;;;;;5.40;4.90;;;;;;;27.96;48.91;99223.14;225878;1280;22573;-73
2023/07/09 09:14:42;;;;;;;5.40;5.00;;;;;;;28.18;48.77;99224.10;225888;1279;22554;-73
2023/07/09 09:19:54;;;;;;;4.90;4.50;;;;;;;28.42;47.84;99228.25;225781;1276;22545;-73
2023/07/09 09:25:05;;;;;;;5.50;5.00;;;;;;;28.62;46.73;99222.34;225835;1257;22583;-73
2023/07/09 09:30:20;;;;;;;5.00;4.60;;;;;;;28.79;46.14;99220.95;225868;1275;22536;-73
2023/07/09 09:35:28;;;;;;;4.70;4.40;;;;;;;28.98;45.14;99222.08;225808;1277;22547;-73
2023/07/09 09:40:35;;;;;;;5.20;4.70;;;;;;;29.05;44.34;99221.41;225790;1277;22551;-73
2023/07/09 09:45:39;;;;;;;4.60;4.30;;;;;;;29.17;44.25;99228.11;225837;1273;22549;-74
2023/07/09 09:50:43;;;;;;;4.90;4.30;;;;;;;29.26;43.59;99225.92;225851;1277;22531;-73
2023/07/09 09:55:46;;;;;;;4.50;4.20;;;;;;;29.44;42.37;99219.98;225838;1276;22566;-73
2023/07/09 10:01:16;;;;;;;4.40;4.00;;;;;;;29.65;41.76;99222.56;225763;1268;22540;-73
2023/07/09 10:07:06;;;;;;;6.40;5.80;;;;;;;29.81;40.83;99222.19;225917;1280;22572;-73
2023/07/09 10:12:39;;;;;;;4.70;4.30;;;;;;;29.96;39.69;99228.55;225841;1280;22533;-73
2023/07/09 10:17:45;;;;;;;4.90;4.50;;;;;;;30.07;39.42;99225.11;225895;1277;22537;-72
2023/07/09 10:23:19;;;;;;;4.40;4.10;;;;;;;30.26;38.66;99226.39;225880;1278;22548;-73
2023/07/09 10:28:35;;;;;;;5.40;4.90;;;;;;;30.44;38.58;99216.70;225806;1276;22533;-73
2023/07/09 10:34:02;;;;;;;5.30;4.80;;;;;;;30.47;37.88;99220.78;225771;1275;22540;-72
2023/07/09 10:39:19;;;;;;;5.40;5.00;;;;;;;30.58;37.70;99215.92;225811;1276;22528;-73
2023/07/09 10:44:33;;;;;;;4.60;4.30;;;;;;;30.72;37.89;99213.84;225846;1276;22553;-72
2023/07/09 10:49:39;;;;;;;5.10;4.60;;;;;;;30.76;37.63;99216.13;225787;1275;22593;-73
2023/07/09 10:55:02;;;;;;;5.20;4.80;;;;;;;30.85;37.71;99212.15;225849;1276;22598;-72
2023/07/09 11:00:15;;;;;;;5.30;4.90;;;;;;;30.93;37.35;99209.56;225828;1279;22549;-72
2023/07/09 11:05:24;;;;;;;4.50;4.20;;;;;;;30.91;36.98;99205.44;225839;1278;25276;-72
2023/07/09 11:10:34;;;;;;;5.10;4.60;;;;;;;30.82;36.83;99198.36;225805;1280;22571;-72
2023/07/09 11:15:50;;;;;;;4.40;4.10;;;;;;;30.84;36.67;99199.02;225833;1280;24451;-72
2023/07/09 11:21:06;;;;;;;5.80;4.60;;;;;;;30.89;36.55;99198.36;225803;1280;22543;-72
2023/07/09 11:26:15;;;;;;;4.60;4.30;;;;;;;30.90;36.36;99194.83;225810;1280;25116;-73
2023/07/09 11:31:21;;;;;;;4.80;4.40;;;;;;;30.94;36.50;99194.25;225824;1276;22560;-73
2023/07/09 11:36:29;;;;;;;5.60;4.70;;;;;;;31.00;36.22;99194.52;225878;1276;22569;-73
2023/07/09 11:41:41;;;;;;;4.90;4.50;;;;;;;31.08;36.45;99190.34;225766;1275;22556;-73
2023/07/09 11:47:19;;;;;;;5.20;4.70;;;;;;;31.19;36.23;99186.62;225761;1278;22570;-73
2023/07/09 11:52:37;;;;;;;4.80;4.40;;;;;;;31.29;36.64;99187.09;225767;1280;23446;-73
2023/07/09 11:57:39;;;;;;;5.20;4.70;;;;;;;31.23;36.25;99186.48;225849;1278;22558;-73
2023/07/09 12:02:41;;;;;;;6.90;5.00;;;;;;;31.32;36.62;99180.48;225807;1276;22548;-73
2023/07/09 12:07:52;;;;;;;5.30;4.80;;;;;;;31.28;36.87;99180.23;225841;1280;22567;-73
2023/07/09 12:12:58;;;;;;;5.40;4.90;;;;;;;31.23;36.94;99170.86;225838;1276;22546;-73
2023/07/09 12:18:09;;;;;;;5.30;4.80;;;;;;;31.12;37.17;99167.04;225821;1278;22550;-73
2023/07/09 12:23:30;;;;;;;5.30;4.80;;;;;;;31.14;37.35;99159.23;225839;1257;22569;-72
2023/07/09 12:28:35;;;;;;;5.50;5.00;;;;;;;31.31;37.08;99146.77;225879;1272;22564;-74
2023/07/09 12:33:38;;;;;;;5.40;5.00;;;;;;;31.37;36.87;99148.94;225850;1278;22544;-73
2023/07/09 12:38:43;;;;;;;5.30;4.80;;;;;;;31.50;36.65;99141.02;225803;1278;22557;-73
2023/07/09 12:43:45;;;;;;;5.00;4.50;;;;;;;31.62;36.34;99139.23;225932;1266;22536;-73
2023/07/09 12:48:50;;;;;;;5.30;4.70;;;;;;;31.73;36.26;99138.06;225860;1278;22590;-73
2023/07/09 12:54:18;;;;;;;6.30;4.90;;;;;;;31.72;35.74;99135.23;225895;1280;22563;-72
2023/07/09 12:59:23;;;;;;;5.10;4.60;;;;;;;31.73;35.24;99138.09;225721;1280;23625;-73
2023/07/09 13:04:35;;;;;;;5.10;4.80;;;;;;;31.74;35.30;99124.77;225840;1276;22547;-73
2023/07/09 13:09:48;;;;;;;5.00;4.60;;;;;;;31.70;35.08;99115.90;225698;1279;22537;-73
2023/07/09 13:15:03;;;;;;;5.20;4.80;;;;;;;31.64;34.77;99121.85;225785;1278;22547;-73
2023/07/09 13:20:06;;;;;;;5.40;5.00;;;;;;;31.58;34.69;99124.05;225650;1279;22640;-73
2023/07/09 13:25:09;;;;;;;5.70;5.20;;;;;;;31.54;34.62;99122.61;225952;1276;22569;-72
2023/07/09 13:30:12;;;;;;;5.10;4.70;;;;;;;31.58;34.74;99120.77;225860;1276;22587;-73
2023/07/09 13:35:20;;;;;;;5.10;4.70;;;;;;;31.64;35.26;99111.94;225819;1274;23296;-73
2023/07/09 13:40:25;;;;;;;5.00;4.50;;;;;;;31.78;34.93;99115.14;225827;1278;22543;-73
2023/07/09 13:45:27;;;;;;;5.20;4.70;;;;;;;31.75;34.20;99109.89;225897;1277;22598;-73
2023/07/09 13:50:29;;;;;;;5.70;4.90;;;;;;;31.64;34.41;99108.02;225807;1280;22996;-72
2023/07/09 13:55:31;;;;;;;5.10;4.60;;;;;;;31.51;34.30;99100.68;225885;1280;22547;-73
2023/07/09 14:00:33;;;;;;;5.90;4.80;;;;;;;31.55;35.01;99107.83;225988;1273;22568;-73
2023/07/09 14:05:36;;;;;;;5.20;4.80;;;;;;;31.59;35.08;99102.73;225842;1278;22555;-74
2023/07/09 14:10:43;;;;;;;4.90;4.50;;;;;;;31.65;35.49;99100.11;225643;1276;25245;-73
2023/07/09 14:15:45;;;;;;;4.90;4.50;;;;;;;31.80;35.21;99102.64;226040;1272;22649;-72
2023/07/09 14:20:50;;;;;;;5.20;4.60;;;;;;;31.87;34.24;99099.37;225903;1280;26698;-73
2023/07/09 14:25:53;;;;;;;4.80;4.40;;;;;;;31.74;33.89;99100.02;225853;1278;24864;-73
2023/07/09 14:30:55;;;;;;;5.40;4.90;;;;;;;31.70;33.91;99100.43;225855;1276;22567;-73
2023/07/09 14:35:57;;;;;;;5.00;4.60;;;;;;;31.71;34.32;99100.98;225880;1279;22547;-73
2023/07/09 14:41:18;;;;;;;5.10;4.60;;;;;;;31.79;34.51;99096.16;225927;1278;22539;-73
2023/07/09 14:46:20;;;;;;;4.80;4.40;;;;;;;31.78;34.25;99085.77;225886;1278;22649;-73
2023/07/09 14:51:33;;;;;;;4.60;4.20;;;;;;;31.76;33.71;99084.50;225888;1280;22848;-73
2023/07/09 14:56:36;;;;;;;5.60;4.60;;;;;;;31.71;33.28;99079.86;225770;1280;22546;-72
2023/07/09 15:01:38;;;;;;;5.00;4.30;;;;;;;31.63;33.35;99089.15;225889;1278;22536;-73
2023/07/09 15:06:49;;;;;;;4.70;4.30;;;;;;;31.55;33.68;99077.89;225815;1278;22580;-72
2023/07/09 15:11:55;;;;;;;4.60;4.30;;;;;;;31.53;33.67;99075.10;225756;1275;22541;-72
2023/07/09 15:16:57;;;;;;;4.70;4.30;;;;;;;31.50;33.44;99074.48;225704;1278;22564;-72
2023/07/09 15:22:02;;;;;;;5.00;4.60;;;;;;;31.56;33.74;99075.02;225791;1278;22608;-72
2023/07/09 15:27:05;;;;;;;5.20;4.80;;;;;;;31.58;33.77;99069.02;225957;1277;25335;-72
2023/07/09 15:32:19;;;;;;;5.20;4.40;;;;;;;31.54;33.80;99075.79;225893;1280;22583;-72
2023/07/09 15:37:30;;;;;;;5.10;4.60;;;;;;;31.46;33.64;99072.65;225959;1276;22547;-72
2023/07/09 15:42:52;;;;;;;5.40;5.00;;;;;;;31.36;33.73;99069.64;225843;1278;22539;-72
2023/07/09 15:47:58;;;;;;;5.10;4.70;;;;;;;31.32;34.24;99065.61;225878;1280;22535;-72
2023/07/09 15:53:10;;;;;;;6.20;5.10;;;;;;;31.22;34.41;99057.65;226003;1276;22564;-72
2023/07/09 15:58:23;;;;;;;4.90;4.50;;;;;;;31.21;34.67;99056.71;225982;1275;22552;-72
2023/07/09 16:03:29;;;;;;;4.60;4.30;;;;;;;31.23;35.05;99058.39;225885;1275;22551;-72
2023/07/09 16:08:31;;;;;;;5.50;5.00;;;;;;;31.18;34.68;99050.67;225874;1275;23072;-72
2023/07/09 16:13:36;;;;;;;5.20;4.70;;;;;;;31.05;34.51;99048.73;225885;1278;23005;-72
2023/07/09 16:18:56;;;;;;;5.70;4.50;;;;;;;30.93;34.64;99050.20;225882;1278;22554;-72
2023/07/09 16:24:14;;;;;;;5.30;4.80;;;;;;;30.83;34.30;99056.10;225945;1275;22524;-72
2023/07/09 16:29:37;;;;;;;4.90;4.50;;;;;;;30.72;34.34;99054.77;225996;1280;22544;-72
2023/07/09 16:34:41;;;;;;;5.00;4.60;;;;;;;30.65;34.70;99055.27;225896;1280;22543;-72
2023/07/09 16:39:52;;;;;;;4.90;4.50;;;;;;;30.61;35.02;99050.68;225767;1280;22563;-72
2023/07/09 16:44:54;;;;;;;4.70;4.30;;;;;;;30.57;35.03;99050.97;225888;1276;22536;-72
2023/07/09 16:50:21;;;;;;;4.60;4.20;;;;;;;30.51;34.97;99053.77;225996;1277;22536;-72
2023/07/09 16:55:29;;;;;;;5.20;4.70;;;;;;;30.40;35.20;99046.13;225947;1275;22559;-72
2023/07/09 17:00:39;;;;;;;4.70;4.30;;;;;;;30.33;35.40;99046.84;225874;1278;22580;-73
2023/07/09 17:05:49;;;;;;;5.20;4.40;;;;;;;30.29;35.29;99046.30;225821;1278;25282;-72
2023/07/09 17:10:55;;;;;;;4.40;4.00;;;;;;;30.30;35.45;99047.27;225924;1273;22540;-72
2023/07/09 17:16:00;;;;;;;5.60;4.40;;;;;;;30.23;35.58;99049.02;225971;1280;22829;-72
2023/07/09 17:21:03;;;;;;;5.30;4.90;;;;;;;30.87;36.05;99050.89;225789;1278;22544;-72
2023/07/09 17:26:13;;;;;;;4.40;4.00;;;;;;;32.22;35.86;99044.69;225900;1277;22540;-72
2023/07/09 17:31:15;;;;;;;4.80;4.40;;;;;;;33.47;35.03;99042.27;225953;1275;22539;-73
2023/07/09 17:36:29;;;;;;;4.70;4.30;;;;;;;34.56;34.44;99046.86;226091;1279;25282;-73
2023/07/09 17:41:31;;;;;;;6.10;4.60;;;;;;;35.34;33.43;99041.11;225974;1278;22543;-72
2023/07/09 17:46:33;;;;;;;4.30;4.00;;;;;;;35.81;33.07;99042.11;225909;1280;22540;-72
2023/07/09 17:51:35;;;;;;;4.90;4.50;;;;;;;36.05;32.33;99037.23;225902;1280;22927;-72
2023/07/09 17:56:38;;;;;;;64.00;58.20;;;;;;;35.13;31.92;99042.16;225954;1280;22540;-72
2023/07/09 18:01:40;;;;;;;6.50;5.90;;;;;;;33.80;32.71;99039.52;225689;1280;22546;-72
2023/07/09 18:06:48;;;;;;;5.70;5.20;;;;;;;32.55;33.15;99038.30;225764;1280;22557;-73
2023/07/09 18:11:53;;;;;;;9.60;5.00;;;;;;;31.48;34.18;99041.64;225961;1277;22550;-73
2023/07/09 18:16:59;;;;;;;5.60;5.10;;;;;;;30.57;34.94;99045.96;225793;1280;22547;-73
2023/07/09 18:22:06;;;;;;;6.00;5.20;;;;;;;29.86;35.76;99039.09;225829;1275;169721;-72
2023/07/09 18:27:18;;;;;;;18.60;17.00;;;;;;;29.19;36.55;99038.14;225808;1280;22538;-72
2023/07/09 18:32:24;;;;;;;5.60;5.10;;;;;;;28.51;37.35;99037.51;225761;1278;22557;-72
2023/07/09 18:37:27;;;;;;;5.70;5.20;;;;;;;27.94;37.83;99038.31;225633;1280;22536;-72
2023/07/09 18:42:30;;;;;;;6.10;5.50;;;;;;;27.44;38.55;99039.77;225743;1270;22536;-72
2023/07/09 18:47:35;;;;;;;6.00;5.40;;;;;;;26.98;38.89;99042.93;225918;1280;22543;-72
2023/07/09 18:52:37;;;;;;;6.30;5.60;;;;;;;26.55;39.37;99046.95;225868;1267;22536;-72
2023/07/09 18:57:39;;;;;;;6.60;5.80;;;;;;;26.15;39.76;99053.66;225814;1275;22536;-72
2023/07/09 19:02:54;;;;;;;6.10;5.40;;;;;;;25.78;40.30;99050.02;225771;1279;22543;-72
2023/07/09 19:08:42;;;;;;;6.10;5.50;;;;;;;25.43;41.06;99048.14;225782;1280;22546;-73
2023/07/09 19:13:45;;;;;;;10.10;5.80;;;;;;;25.10;41.51;99049.84;225956;1278;22536;-72
2023/07/09 19:19:02;;;;;;;6.00;5.40;;;;;;;24.82;41.90;99052.01;225913;1280;22555;-73
2023/07/09 19:24:27;;;;;;;5.80;5.30;;;;;;;24.53;42.31;99052.88;225902;1280;24324;-73
2023/07/09 19:29:33;;;;;;;6.40;5.00;;;;;;;24.25;42.94;99049.80;225808;1280;24215;-73
2023/07/09 19:34:40;;;;;;;6.20;5.20;;;;;;;23.98;43.71;99051.12;225805;1280;22544;-73
2023/07/09 19:39:45;;;;;;;5.30;4.90;;;;;;;23.71;44.50;99053.06;225771;1275;22701;-72
2023/07/09 19:44:52;;;;;;;5.90;5.30;;;;;;;23.46;45.08;99058.27;225869;1278;25547;-72
2023/07/09 19:50:12;;;;;;;5.70;5.10;;;;;;;23.22;45.48;99062.38;225997;1278;22568;-73
2023/07/09 19:55:23;;;;;;;5.50;5.00;;;;;;;22.99;45.84;99068.95;225777;1280;22539;-73
2023/07/09 20:00:28;;;;;;;5.30;4.80;;;;;;;22.79;46.22;99072.92;225941;1277;22539;-73
2023/07/09 20:05:52;;;;;;;6.00;4.90;;;;;;;22.59;46.71;99082.31;225795;1280;22549;-73
2023/07/09 20:11:01;;;;;;;5.70;5.20;;;;;;;22.40;47.16;99083.36;225879;1280;24925;-72
2023/07/09 20:16:03;;;;;;;6.70;4.90;;;;;;;22.21;47.41;99084.48;225838;1259;25285;-72
2023/07/09 20:21:17;;;;;;;5.10;4.60;;;;;;;22.03;47.80;99094.11;225840;1278;22609;-71
2023/07/09 20:26:20;;;;;;;6.20;4.70;;;;;;;21.86;48.07;99102.68;225924;1277;24947;-72
2023/07/09 20:31:24;;;;;;;7.60;5.60;;;;;;;21.66;48.92;99108.06;225823;1278;22497;-73
2023/07/09 20:36:27;;;;;;;6.90;5.70;;;;;;;21.46;49.52;99112.17;225762;1275;22553;-73
2023/07/09 20:41:32;;;;;;;7.70;5.90;;;;;;;21.26;49.93;99115.96;225755;1278;24501;-72
2023/07/09 20:46:34;;;;;;;9.50;7.00;;;;;;;21.10;50.01;99117.54;225733;1280;24241;-72
2023/07/09 20:51:56;;;;;;;;;;;;;;;;;;;;;
2023/07/09 20:57:03;;;;;;;6.70;5.90;;;;;;;20.78;50.54;99120.73;225844;1280;22545;-73
2023/07/09 21:02:17;;;;;;;8.90;5.40;;;;;;;20.64;51.06;99124.06;225803;1280;22548;-73
2023/07/09 21:07:20;;;;;;;7.50;6.40;;;;;;;20.49;51.59;99117.11;225954;1278;22571;-72
2023/07/09 21:12:23;;;;;;;6.40;5.70;;;;;;;20.35;52.14;99117.73;225832;1278;22545;-73
2023/07/09 21:17:28;;;;;;;8.80;5.70;;;;;;;20.22;52.91;99133.16;225827;1279;22540;-73
2023/07/09 21:22:31;;;;;;;7.70;6.00;;;;;;;20.09;53.61;99136.40;225824;1278;24766;-73
2023/07/09 21:27:42;;;;;;;6.90;6.20;;;;;;;19.95;54.05;99137.82;225946;1278;22555;-72
2023/07/09 21:32:46;;;;;;;9.20;6.40;;;;;;;19.82;54.53;99137.20;225917;1278;24182;-73
2023/07/09 21:38:25;;;;;;;7.20;5.60;;;;;;;19.69;54.93;99134.70;225791;1280;24318;-72
2023/07/09 21:43:28;;;;;;;6.50;5.90;;;;;;;19.60;55.26;99131.71;225767;1280;22569;-72
2023/07/09 21:48:30;;;;;;;6.90;6.20;;;;;;;19.50;55.53;99128.81;225852;1257;23583;-73
2023/07/09 21:53:32;;;;;;;8.50;6.40;;;;;;;19.41;56.09;99137.03;225799;1280;22536;-73
2023/07/09 21:58:55;;;;;;;7.50;6.40;;;;;;;19.30;56.47;99142.87;225777;1280;25335;-73
2023/07/09 22:03:57;;;;;;;7.60;6.60;;;;;;;19.21;56.62;99142.39;225834;1280;22557;-73
2023/07/09 22:09:00;;;;;;;8.40;6.70;;;;;;;19.11;56.71;99139.98;225870;1280;22536;-73
2023/07/09 22:14:12;;;;;;;8.70;6.80;;;;;;;19.02;56.93;99138.06;225882;1278;22550;-72
2023/07/09 22:19:19;;;;;;;7.50;6.70;;;;;;;18.93;57.33;99137.34;226025;1278;25213;-72
2023/07/09 22:24:33;;;;;;;9.20;7.60;;;;;;;18.84;57.49;99142.78;226130;1276;22557;-72
2023/07/09 22:29:37;;;;;;;10.20;7.00;;;;;;;18.73;57.73;99137.86;225971;1278;22650;-71
2023/07/09 22:35:19;;;;;;;9.00;7.00;;;;;;;18.60;58.22;99136.98;226117;1278;24260;-72
2023/07/09 22:40:27;;;;;;;8.40;7.00;;;;;;;18.47;58.54;99134.00;225842;1280;22547;-72
2023/07/09 22:45:32;;;;;;;9.40;7.10;;;;;;;18.36;59.30;99136.73;225815;1280;22527;-72
2023/07/09 22:50:40;;;;;;;9.90;7.80;;;;;;;18.26;59.71;99149.36;225940;1278;22602;-72
2023/07/09 22:55:52;;;;;;;11.50;7.90;;;;;;;18.12;59.83;99150.45;225893;1278;22544;-72
2023/07/09 23:01:27;;;;;;;10.90;7.90;;;;;;;18.01;60.18;99152.83;225896;1278;25331;-72
2023/07/09 23:06:33;;;;;;;;;;;;;;;17.90;60.76;99155.74;225958;1278;22516;-72
2023/07/09 23:11:51;;;;;;;10.10;7.90;;;;;;;17.79;61.25;99151.44;225902;1280;22605;-72
2023/07/09 23:17:18;;;;;;;10.20;8.10;;;;;;;17.72;61.70;99149.77;225904;1280;22609;-72
2023/07/09 23:22:26;;;;;;;8.90;7.80;;;;;;;17.63;61.89;99145.25;225878;1278;22569;-71
2023/07/09 23:27:58;;;;;;;11.50;8.30;;;;;;;17.56;62.23;99144.38;225805;1281;22598;-72
2023/07/09 23:33:25;;;;;;;12.10;7.90;;;;;;;17.49;62.67;99137.73;225889;1280;22548;-72
2023/07/09 23:38:47;;;;;;;10.30;8.30;;;;;;;17.44;62.97;99137.98;225882;1280;22544;-71
2023/07/09 23:43:53;;;;;;;8.70;7.50;;;;;;;17.39;63.16;99139.52;225940;1278;22485;-72
2023/07/09 23:49:17;;;;;;;8.70;7.80;;;;;;;17.37;63.18;99143.67;226055;1278;22740;-73
2023/07/09 23:54:19;;;;;;;8.80;7.30;;;;;;;17.40;63.42;99132.71;225838;1280;22564;-72
2023/07/09 23:59:30;;;;;;;10.70;7.70;;;;;;;17.43;63.50;99127.89;225941;1278;22649;-72
